Terminal Aerodrome Forecast
Issued by NWS Pocatello, ID

Home | Current Version | Previous Version | Text Only | Print | Product List | Glossary On
Versions: 1 2 3 4 5 6 7 8 9 10 11 12 13
353
FTUS45 KPIH 250520
TAFIDA
TAF
KIDA 250520Z 2506/2606 20011KT P6SM VCSH SCT015 OVC045
     FM250700 20008KT P6SM -SHRA SCT020 OVC030
     FM251300 20007KT P6SM VCSH BKN020 OVC040
     FM251700 22014G24KT P6SM VCSH SCT020 BKN040
     FM260100 25010KT P6SM SCT040=

USA.gov is the U.S. government's official web portal to all federal, state and local government web resources and services.